SBSP/CGH METAR and TAF weather

Enter ICAO airport designator
Station Type Date Time Source
SBSP METAR 2021/09/24 01:00 UTC NOAA

SBSP 240100Z 13007KT 100V160 9999 BKN011 13/10 Q1023


Station Type Date Time Source
SBSP Decoded METAR 2021/09/24 01:00 UTC NOAA

Sao Paulo/Congonhas Aeroporto, Brazil (SBSP) 23-37S 046-39W 802M
Sep 23, 2021 - 09:00 PM EDT / 2021.09.24 0100 UTC
Wind: from the SE (130 degrees) at 8 MPH (7 KT) (direction variable):0
Visibility: greater than 7 mile(s):0
Sky conditions: mostly cloudy
Temperature: 55 F (13 C)
Dew Point: 50 F (10 C)
Relative Humidity: 81%
Pressure (altimeter): 30.21 in. Hg (1023 hPa)
ob: SBSP 240100Z 13007KT 100V160 9999 BKN011 13/10 Q1023
cycle: 1

Station Type Date Time Source
SBSP TAF 2021/09/23 18:24 UTC NOAA

TAF SBSP 231600Z 2318/2406 15010KT 9999 BKN025 TX19/2318Z TN14/2405Z
BECMG 2319/2321 SCT017
BECMG 2321/2323 BKN013
BECMG 2400/2402 08005KT
RMK PGL

Example: see airport list